Airfield :
LOGIN :

Register | Disclaimer

   EN    FR    IT 

 










Legend :    VFR   Marginal VFR   IFR   Intensive IFR   Very Intensive IFR
Visi :
Ceiling :
>= 8 km
>= 3000ft
5 to 8 km
1000 to 3000 ft
1500m to 5 km
500 to 1000 ft
800 to 1500m
200 to 500 ft
< 800m
< 200 ft
Symbols :   Thunderstorms  Fog  Heavy snow  Heavy precipitations  Wind > 20 kt
SIGMETs :     Misc.  Thunderstorms  Icing  Turbulence  Mountain Waves  Volcanic Ashes






- Airport Elevation : 37 ft
- IATA code : HLY


EGOV - RAF Valley

CURRENT METAR :
  • 070950Z 34010KT 9999 SCT021 09/04 Q1016 NOSIG RMK WHT WHT

EXPIRED METARs :
  • 070925Z 34010KT 9999 SCT020 09/05 Q1016 NOSIG RMK WHT WHT
  • 070850Z 32009KT 9999 SCT016 08/05 Q1015 NOSIG RMK WHT WHT
  • 070820Z 35002KT 9999 FEW010 SCT016 06/05 Q1015 RESHRA NOSIG RMK WHT WHT
  • 070750Z 29012KT 9999 7000S SHRA SCT010 SCT022 06/04 Q1015 TEMPO 9999 NSW SCT018 SCT025 RMK GRN TEMPO WHT
  • 070733Z 27010KT 9999 -SHRA SCT014 SCT038 06/04 Q1015 TEMPO 7000 SHRA SCT018 RMK GRN TEMPO WHT

TAF TAF EGOV
Valid from the 07 at 09:00 until the 07 at 18:00 UTC


070757Z 0709/0718 29012KT 9999 FEW025
PROB40
TEMPO 0709/0710 7000 SHRA SCT014TCU



MET'MAP, your aeronautical weather chart ! - Copyright ORBIFLY December 2007 - Disclaimer

ORBIFLY MET'MAP TEAM :

Programming & Development : Alexandra Zaïnal
Concept & original design : Baudouin d'Aumeries
Assistance for programming : Marc-Olivier Méhu
Technical & hardware support : Manuel Goepfert

Contact : metmap@orbifly.com




SOURCES & CREDITS :

   NOAA